sensor_id;sensor_type;location;lat;lon;timestamp;pressure;altitude;pressure_sealevel;temperature;humidity
78675;BME280;67990;59.826;30.108;2023-06-14T00:02:36;102084.44;;;9.29;72.83
78675;BME280;67990;59.826;30.108;2023-06-14T00:05:04;102082.13;;;9.24;73.24
78675;BME280;67990;59.826;30.108;2023-06-14T00:07:35;102075.47;;;9.19;72.89
78675;BME280;67990;59.826;30.108;2023-06-14T00:10:22;102079.28;;;9.13;73.31
78675;BME280;67990;59.826;30.108;2023-06-14T00:12:49;102080.31;;;9.11;73.07
78675;BME280;67990;59.826;30.108;2023-06-14T00:15:52;102081.28;;;9.10;73.24
78675;BME280;67990;59.826;30.108;2023-06-14T00:18:22;102087.34;;;9.10;73.39
78675;BME280;67990;59.826;30.108;2023-06-14T00:21:07;102083.03;;;9.09;73.49
78675;BME280;67990;59.826;30.108;2023-06-14T00:23:34;102083.88;;;9.10;73.39
78675;BME280;67990;59.826;30.108;2023-06-14T00:26:01;102096.41;;;9.05;73.29
78675;BME280;67990;59.826;30.108;2023-06-14T00:28:29;102090.25;;;9.06;73.82
78675;BME280;67990;59.826;30.108;2023-06-14T00:30:56;102096.31;;;9.06;73.33
78675;BME280;67990;59.826;30.108;2023-06-14T00:36:11;102098.47;;;9.00;73.39
78675;BME280;67990;59.826;30.108;2023-06-14T00:41:43;102090.97;;;8.94;73.48
78675;BME280;67990;59.826;30.108;2023-06-14T00:44:11;102087.88;;;8.87;73.70
78675;BME280;67990;59.826;30.108;2023-06-14T00:46:40;102090.50;;;8.87;74.23
78675;BME280;67990;59.826;30.108;2023-06-14T00:49:29;102090.97;;;8.94;74.23
78675;BME280;67990;59.826;30.108;2023-06-14T00:52:15;102090.03;;;8.95;74.08
78675;BME280;67990;59.826;30.108;2023-06-14T00:54:42;102088.19;;;8.97;74.11
78675;BME280;67990;59.826;30.108;2023-06-14T00:57:10;102092.66;;;8.95;74.20
78675;BME280;67990;59.826;30.108;2023-06-14T00:59:41;102090.81;;;8.97;74.26
78675;BME280;67990;59.826;30.108;2023-06-14T01:02:27;102086.75;;;8.91;74.39
78675;BME280;67990;59.826;30.108;2023-06-14T01:04:57;102084.88;;;8.93;74.21
78675;BME280;67990;59.826;30.108;2023-06-14T01:07:45;102084.06;;;8.93;74.18
78675;BME280;67990;59.826;30.108;2023-06-14T01:10:25;102080.59;;;8.92;74.18
78675;BME280;67990;59.826;30.108;2023-06-14T01:12:58;102080.03;;;9.01;73.96
78675;BME280;67990;59.826;30.108;2023-06-14T01:15:29;102074.63;;;9.04;73.78
78675;BME280;67990;59.826;30.108;2023-06-14T01:17:58;102070.41;;;9.02;73.83
78675;BME280;67990;59.826;30.108;2023-06-14T01:20:31;102082.75;;;9.00;73.83
78675;BME280;67990;59.826;30.108;2023-06-14T01:23:05;102082.75;;;9.00;73.66
78675;BME280;67990;59.826;30.108;2023-06-14T01:25:32;102080.31;;;8.97;73.91
78675;BME280;67990;59.826;30.108;2023-06-14T01:28:04;102083.84;;;8.96;74.11
78675;BME280;67990;59.826;30.108;2023-06-14T01:30:36;102084.72;;;8.96;74.15
78675;BME280;67990;59.826;30.108;2023-06-14T01:33:04;102079.38;;;8.98;74.07
78675;BME280;67990;59.826;30.108;2023-06-14T01:35:32;102069.25;;;8.92;74.12
78675;BME280;67990;59.826;30.108;2023-06-14T01:38:02;102072.47;;;8.97;74.06
78675;BME280;67990;59.826;30.108;2023-06-14T01:40:33;102086.88;;;9.04;73.82
78675;BME280;67990;59.826;30.108;2023-06-14T01:43:02;102083.22;;;9.06;74.25
78675;BME280;67990;59.826;30.108;2023-06-14T01:45:30;102075.81;;;9.13;73.86
78675;BME280;67990;59.826;30.108;2023-06-14T01:47:58;102086.69;;;9.21;73.63
78675;BME280;67990;59.826;30.108;2023-06-14T01:50:28;102090.00;;;9.24;73.55
78675;BME280;67990;59.826;30.108;2023-06-14T01:52:56;102086.50;;;9.24;73.57
78675;BME280;67990;59.826;30.108;2023-06-14T01:55:24;102083.72;;;9.27;73.61
78675;BME280;67990;59.826;30.108;2023-06-14T01:57:53;102084.19;;;9.33;73.98
78675;BME280;67990;59.826;30.108;2023-06-14T02:00:20;102087.63;;;9.34;73.91
78675;BME280;67990;59.826;30.108;2023-06-14T02:02:48;102085.84;;;9.48;73.47
78675;BME280;67990;59.826;30.108;2023-06-14T02:05:15;102084.44;;;9.57;73.21
78675;BME280;67990;59.826;30.108;2023-06-14T02:07:44;102080.53;;;9.64;72.90
78675;BME280;67990;59.826;30.108;2023-06-14T02:10:15;102073.84;;;9.72;72.67
78675;BME280;67990;59.826;30.108;2023-06-14T02:12:43;102070.00;;;9.78;72.74
78675;BME280;67990;59.826;30.108;2023-06-14T02:15:12;102075.78;;;9.83;72.76
78675;BME280;67990;59.826;30.108;2023-06-14T02:17:42;102070.81;;;9.92;72.95
78675;BME280;67990;59.826;30.108;2023-06-14T02:20:46;102070.69;;;10.08;72.85
78675;BME280;67990;59.826;30.108;2023-06-14T02:23:13;102072.75;;;10.17;73.04
78675;BME280;67990;59.826;30.108;2023-06-14T02:25:40;102076.25;;;10.30;73.32
78675;BME280;67990;59.826;30.108;2023-06-14T02:28:08;102073.81;;;10.53;73.30
78675;BME280;67990;59.826;30.108;2023-06-14T02:30:54;102075.44;;;10.81;73.04
78675;BME280;67990;59.826;30.108;2023-06-14T02:33:22;102068.53;;;11.05;72.63
78675;BME280;67990;59.826;30.108;2023-06-14T02:36:07;102071.75;;;11.33;71.35
78675;BME280;67990;59.826;30.108;2023-06-14T02:41:20;102069.38;;;11.92;70.41
78675;BME280;67990;59.826;30.108;2023-06-14T02:43:47;102065.13;;;12.25;69.23
78675;BME280;67990;59.826;30.108;2023-06-14T02:46:15;102066.84;;;12.61;68.26
78675;BME280;67990;59.826;30.108;2023-06-14T02:49:19;102065.91;;;13.07;67.59
78675;BME280;67990;59.826;30.108;2023-06-14T02:51:47;102064.34;;;13.49;66.86
78675;BME280;67990;59.826;30.108;2023-06-14T02:54:15;102059.25;;;14.01;65.64
78675;BME280;67990;59.826;30.108;2023-06-14T02:56:43;102066.97;;;14.67;63.73
78675;BME280;67990;59.826;30.108;2023-06-14T02:59:10;102058.13;;;15.48;62.56
78675;BME280;67990;59.826;30.108;2023-06-14T03:02:15;102059.34;;;16.62;60.09
78675;BME280;67990;59.826;30.108;2023-06-14T03:07:30;102049.50;;;18.18;57.03
78675;BME280;67990;59.826;30.108;2023-06-14T03:09:59;102063.50;;;18.72;55.03
78675;BME280;67990;59.826;30.108;2023-06-14T03:18:20;102062.16;;;20.52;51.37
78675;BME280;67990;59.826;30.108;2023-06-14T03:20:50;102070.50;;;20.89;50.16
78675;BME280;67990;59.826;30.108;2023-06-14T03:23:18;102069.13;;;21.33;49.34
78675;BME280;67990;59.826;30.108;2023-06-14T03:26:05;102075.81;;;21.84;47.22
78675;BME280;67990;59.826;30.108;2023-06-14T03:28:33;102070.28;;;22.38;46.55
78675;BME280;67990;59.826;30.108;2023-06-14T03:31:00;102085.38;;;22.99;45.21
78675;BME280;67990;59.826;30.108;2023-06-14T03:33:47;102075.50;;;23.51;45.69
78675;BME280;67990;59.826;30.108;2023-06-14T03:36:14;102064.25;;;23.76;43.34
78675;BME280;67990;59.826;30.108;2023-06-14T03:38:43;102074.28;;;24.18;43.17
78675;BME280;67990;59.826;30.108;2023-06-14T03:41:12;102073.47;;;24.59;42.38
78675;BME280;67990;59.826;30.108;2023-06-14T03:43:39;102081.97;;;25.11;41.36
78675;BME280;67990;59.826;30.108;2023-06-14T03:46:07;102077.59;;;25.72;39.65
78675;BME280;67990;59.826;30.108;2023-06-14T03:48:35;102072.06;;;26.34;38.13
78675;BME280;67990;59.826;30.108;2023-06-14T03:51:03;102074.38;;;26.95;38.11
78675;BME280;67990;59.826;30.108;2023-06-14T03:53:31;102064.28;;;27.61;36.72
78675;BME280;67990;59.826;30.108;2023-06-14T03:55:58;102068.34;;;27.96;35.02
78675;BME280;67990;59.826;30.108;2023-06-14T03:58:33;102065.09;;;28.18;32.48
78675;BME280;67990;59.826;30.108;2023-06-14T04:01:00;102068.72;;;28.43;33.17
78675;BME280;67990;59.826;30.108;2023-06-14T04:12:06;102077.94;;;29.70;28.08
78675;BME280;67990;59.826;30.108;2023-06-14T04:14:34;102080.50;;;29.83;27.05
78675;BME280;67990;59.826;30.108;2023-06-14T04:17:02;102065.75;;;30.08;25.93
78675;BME280;67990;59.826;30.108;2023-06-14T04:19:29;102070.84;;;30.46;25.36
78675;BME280;67990;59.826;30.108;2023-06-14T04:21:59;102067.34;;;30.57;25.56
78675;BME280;67990;59.826;30.108;2023-06-14T04:24:45;102069.44;;;31.08;25.92
78675;BME280;67990;59.826;30.108;2023-06-14T04:27:12;102075.31;;;31.05;24.65
78675;BME280;67990;59.826;30.108;2023-06-14T04:29:40;102070.50;;;31.18;23.75
78675;BME280;67990;59.826;30.108;2023-06-14T04:32:11;102070.56;;;31.81;25.02
78675;BME280;67990;59.826;30.108;2023-06-14T04:34:39;102075.31;;;32.30;23.90
78675;BME280;67990;59.826;30.108;2023-06-14T04:37:28;102083.09;;;32.54;24.53
78675;BME280;67990;59.826;30.108;2023-06-14T04:39:57;102083.78;;;33.11;24.07
78675;BME280;67990;59.826;30.108;2023-06-14T04:42:24;102064.41;;;33.45;22.22
78675;BME280;67990;59.826;30.108;2023-06-14T04:48:03;102075.56;;;33.65;21.83
78675;BME280;67990;59.826;30.108;2023-06-14T04:53:56;102072.25;;;34.60;20.71
78675;BME280;67990;59.826;30.108;2023-06-14T04:59:32;102076.66;;;35.39;19.26
78675;BME280;67990;59.826;30.108;2023-06-14T05:02:01;102081.06;;;35.45;19.65
78675;BME280;67990;59.826;30.108;2023-06-14T05:04:28;102065.88;;;35.79;19.20
78675;BME280;67990;59.826;30.108;2023-06-14T05:06:57;102066.78;;;36.14;18.88
78675;BME280;67990;59.826;30.108;2023-06-14T05:09:26;102072.06;;;36.31;19.15
78675;BME280;67990;59.826;30.108;2023-06-14T05:11:53;102068.50;;;36.25;18.41
78675;BME280;67990;59.826;30.108;2023-06-14T05:17:07;102066.31;;;36.97;16.45
78675;BME280;67990;59.826;30.108;2023-06-14T05:26:01;102062.00;;;37.65;15.65
78675;BME280;67990;59.826;30.108;2023-06-14T05:28:49;102051.63;;;37.52;16.25
78675;BME280;67990;59.826;30.108;2023-06-14T05:31:18;102054.13;;;38.02;15.03
78675;BME280;67990;59.826;30.108;2023-06-14T05:34:03;102058.47;;;38.52;15.05
78675;BME280;67990;59.826;30.108;2023-06-14T05:36:48;102063.50;;;38.73;15.93
78675;BME280;67990;59.826;30.108;2023-06-14T05:39:15;102063.06;;;38.90;15.23
78675;BME280;67990;59.826;30.108;2023-06-14T05:47:33;102055.72;;;39.56;14.31
78675;BME280;67990;59.826;30.108;2023-06-14T05:50:18;102058.13;;;39.62;14.05
78675;BME280;67990;59.826;30.108;2023-06-14T05:53:04;102063.50;;;39.72;13.91
78675;BME280;67990;59.826;30.108;2023-06-14T05:55:31;102055.13;;;40.01;13.08
78675;BME280;67990;59.826;30.108;2023-06-14T05:58:00;102060.47;;;40.29;13.17
78675;BME280;67990;59.826;30.108;2023-06-14T06:00:27;102057.81;;;39.87;13.83
78675;BME280;67990;59.826;30.108;2023-06-14T06:02:55;102062.97;;;40.63;14.52
78675;BME280;67990;59.826;30.108;2023-06-14T06:05:24;102055.44;;;40.68;13.84
78675;BME280;67990;59.826;30.108;2023-06-14T06:10:55;102052.16;;;41.52;12.18
78675;BME280;67990;59.826;30.108;2023-06-14T06:13:24;102057.13;;;41.10;11.97
78675;BME280;67990;59.826;30.108;2023-06-14T06:15:51;102053.69;;;41.45;12.25
78675;BME280;67990;59.826;30.108;2023-06-14T06:18:37;102050.69;;;41.68;12.25
78675;BME280;67990;59.826;30.108;2023-06-14T06:21:22;102049.41;;;41.25;12.61
78675;BME280;67990;59.826;30.108;2023-06-14T06:23:49;102051.97;;;40.76;11.76
78675;BME280;67990;59.826;30.108;2023-06-14T06:26:17;102051.22;;;41.03;12.36
78675;BME280;67990;59.826;30.108;2023-06-14T06:28:45;102055.06;;;40.56;11.72
78675;BME280;67990;59.826;30.108;2023-06-14T06:31:12;102057.44;;;41.08;13.12
78675;BME280;67990;59.826;30.108;2023-06-14T06:33:39;102052.03;;;41.57;12.28
78675;BME280;67990;59.826;30.108;2023-06-14T06:36:07;102059.50;;;41.03;10.93
78675;BME280;67990;59.826;30.108;2023-06-14T06:38:34;102052.34;;;41.15;12.01
78675;BME280;67990;59.826;30.108;2023-06-14T06:41:02;102049.06;;;41.40;11.16
78675;BME280;67990;59.826;30.108;2023-06-14T06:46:17;102058.81;;;40.79;11.81
78675;BME280;67990;59.826;30.108;2023-06-14T06:49:03;102051.28;;;40.84;11.83
78675;BME280;67990;59.826;30.108;2023-06-14T06:51:30;102047.75;;;41.51;11.64
78675;BME280;67990;59.826;30.108;2023-06-14T06:54:16;102055.47;;;41.76;11.88
78675;BME280;67990;59.826;30.108;2023-06-14T06:56:43;102063.16;;;41.79;11.87
78675;BME280;67990;59.826;30.108;2023-06-14T06:59:10;102065.03;;;42.06;12.69
78675;BME280;67990;59.826;30.108;2023-06-14T07:01:40;102059.38;;;41.75;12.03
78675;BME280;67990;59.826;30.108;2023-06-14T07:04:07;102052.91;;;41.93;10.94
78675;BME280;67990;59.826;30.108;2023-06-14T07:06:52;102056.50;;;41.80;10.62
78675;BME280;67990;59.826;30.108;2023-06-14T07:09:19;102052.13;;;41.66;11.62
78675;BME280;67990;59.826;30.108;2023-06-14T07:11:47;102049.78;;;41.05;11.79
78675;BME280;67990;59.826;30.108;2023-06-14T07:14:32;102059.19;;;41.04;11.77
78675;BME280;67990;59.826;30.108;2023-06-14T07:17:00;102062.25;;;40.39;12.96
78675;BME280;67990;59.826;30.108;2023-06-14T07:19:28;102052.78;;;40.77;11.59
78675;BME280;67990;59.826;30.108;2023-06-14T07:21:56;102054.38;;;40.96;12.52
78675;BME280;67990;59.826;30.108;2023-06-14T07:24:24;102055.63;;;41.17;12.16
78675;BME280;67990;59.826;30.108;2023-06-14T07:27:09;102055.59;;;41.31;11.80
78675;BME280;67990;59.826;30.108;2023-06-14T07:30:12;102062.09;;;39.75;12.96
78675;BME280;67990;59.826;30.108;2023-06-14T07:32:58;102046.22;;;40.59;11.99
78675;BME280;67990;59.826;30.108;2023-06-14T07:35:27;102044.84;;;40.89;12.36
78675;BME280;67990;59.826;30.108;2023-06-14T07:38:11;102044.22;;;40.78;13.10
78675;BME280;67990;59.826;30.108;2023-06-14T07:40:39;102047.97;;;41.41;11.44
78675;BME280;67990;59.826;30.108;2023-06-14T07:43:06;102050.97;;;41.94;11.77
78675;BME280;67990;59.826;30.108;2023-06-14T07:45:51;102054.28;;;41.69;11.47
78675;BME280;67990;59.826;30.108;2023-06-14T07:54:10;102045.19;;;41.55;11.75
78675;BME280;67990;59.826;30.108;2023-06-14T07:56:37;102050.06;;;40.90;11.67
78675;BME280;67990;59.826;30.108;2023-06-14T07:59:05;102048.66;;;41.60;11.49
78675;BME280;67990;59.826;30.108;2023-06-14T08:01:33;102051.81;;;41.67;11.17
78675;BME280;67990;59.826;30.108;2023-06-14T08:04:21;102051.69;;;41.72;12.17
78675;BME280;67990;59.826;30.108;2023-06-14T08:06:49;102052.84;;;41.58;10.70
78675;BME280;67990;59.826;30.108;2023-06-14T08:09:16;102045.78;;;41.52;10.94
78675;BME280;67990;59.826;30.108;2023-06-14T08:17:14;102054.28;;;41.55;12.02
78675;BME280;67990;59.826;30.108;2023-06-14T08:19:43;102051.72;;;41.45;11.80
78675;BME280;67990;59.826;30.108;2023-06-14T08:22:10;102042.31;;;41.06;11.35
78675;BME280;67990;59.826;30.108;2023-06-14T08:24:57;102051.00;;;41.53;11.75
78675;BME280;67990;59.826;30.108;2023-06-14T08:27:24;102042.53;;;41.99;10.30
78675;BME280;67990;59.826;30.108;2023-06-14T08:29:51;102051.53;;;41.42;11.80
78675;BME280;67990;59.826;30.108;2023-06-14T08:32:37;102049.41;;;40.66;12.69
78675;BME280;67990;59.826;30.108;2023-06-14T08:35:27;102047.28;;;40.45;13.73
78675;BME280;67990;59.826;30.108;2023-06-14T08:37:54;102050.50;;;39.96;14.91
78675;BME280;67990;59.826;30.108;2023-06-14T08:40:23;102047.13;;;39.62;14.71
78675;BME280;67990;59.826;30.108;2023-06-14T08:42:51;102056.53;;;39.38;15.99
78675;BME280;67990;59.826;30.108;2023-06-14T08:45:19;102064.78;;;39.09;16.20
78675;BME280;67990;59.826;30.108;2023-06-14T08:48:07;102062.03;;;38.52;16.64
78675;BME280;67990;59.826;30.108;2023-06-14T08:50:36;102061.88;;;38.33;16.80
78675;BME280;67990;59.826;30.108;2023-06-14T08:53:24;102064.56;;;38.00;17.36
78675;BME280;67990;59.826;30.108;2023-06-14T08:55:53;102055.59;;;37.89;19.04
78675;BME280;67990;59.826;30.108;2023-06-14T08:58:21;102064.56;;;38.05;21.95
78675;BME280;67990;59.826;30.108;2023-06-14T09:01:08;102067.25;;;37.61;19.80
78675;BME280;67990;59.826;30.108;2023-06-14T09:03:38;102060.28;;;36.95;20.91
78675;BME280;67990;59.826;30.108;2023-06-14T09:06:08;102060.56;;;36.49;22.64
78675;BME280;67990;59.826;30.108;2023-06-14T09:08:57;102055.63;;;36.66;22.43
78675;BME280;67990;59.826;30.108;2023-06-14T09:11:25;102055.66;;;36.46;22.79
78675;BME280;67990;59.826;30.108;2023-06-14T09:13:53;102055.63;;;36.61;23.16
78675;BME280;67990;59.826;30.108;2023-06-14T09:16:20;102057.56;;;36.40;22.73
78675;BME280;67990;59.826;30.108;2023-06-14T09:19:06;102057.00;;;36.23;22.38
78675;BME280;67990;59.826;30.108;2023-06-14T09:21:35;102055.56;;;36.06;22.32
78675;BME280;67990;59.826;30.108;2023-06-14T09:24:03;102055.91;;;36.64;23.51
78675;BME280;67990;59.826;30.108;2023-06-14T09:29:34;102056.16;;;36.13;22.49
78675;BME280;67990;59.826;30.108;2023-06-14T09:32:01;102053.75;;;35.55;23.62
78675;BME280;67990;59.826;30.108;2023-06-14T09:34:29;102055.03;;;35.32;23.89
78675;BME280;67990;59.826;30.108;2023-06-14T09:36:57;102053.19;;;34.70;24.13
78675;BME280;67990;59.826;30.108;2023-06-14T09:39:24;102053.19;;;34.70;24.84
78675;BME280;67990;59.826;30.108;2023-06-14T09:41:52;102041.22;;;34.44;25.55
78675;BME280;67990;59.826;30.108;2023-06-14T09:44:20;102055.56;;;34.03;25.69
78675;BME280;67990;59.826;30.108;2023-06-14T09:46:48;102050.00;;;34.19;26.90
78675;BME280;67990;59.826;30.108;2023-06-14T09:52:03;102054.16;;;34.00;25.39
78675;BME280;67990;59.826;30.108;2023-06-14T09:54:32;102053.34;;;33.78;25.94
78675;BME280;67990;59.826;30.108;2023-06-14T09:57:22;102057.56;;;33.43;25.65
78675;BME280;67990;59.826;30.108;2023-06-14T09:59:53;102050.16;;;33.05;26.42
78675;BME280;67990;59.826;30.108;2023-06-14T10:02:42;102056.22;;;32.41;26.32
78675;BME280;67990;59.826;30.108;2023-06-14T10:05:15;102052.63;;;31.96;27.12
78675;BME280;67990;59.826;30.108;2023-06-14T10:07:50;102049.16;;;31.73;27.50
78675;BME280;67990;59.826;30.108;2023-06-14T10:10:20;102055.09;;;31.58;28.22
78675;BME280;67990;59.826;30.108;2023-06-14T10:13:06;102051.00;;;31.21;29.04
78675;BME280;67990;59.826;30.108;2023-06-14T10:15:51;102046.91;;;30.43;28.69
78675;BME280;67990;59.826;30.108;2023-06-14T10:18:27;102041.06;;;29.98;28.60
78675;BME280;67990;59.826;30.108;2023-06-14T10:21:04;102052.44;;;29.59;29.27
78675;BME280;67990;59.826;30.108;2023-06-14T10:23:38;102048.13;;;29.34;29.12
78675;BME280;67990;59.826;30.108;2023-06-14T10:26:25;102045.88;;;29.31;29.07
78675;BME280;67990;59.826;30.108;2023-06-14T10:29:10;102045.31;;;28.80;29.59
78675;BME280;67990;59.826;30.108;2023-06-14T10:31:41;102042.00;;;27.78;29.95
78675;BME280;67990;59.826;30.108;2023-06-14T10:34:27;102035.91;;;27.96;31.13
78675;BME280;67990;59.826;30.108;2023-06-14T10:37:03;102043.16;;;28.33;30.51
78675;BME280;67990;59.826;30.108;2023-06-14T10:39:51;102036.81;;;27.83;30.51
78675;BME280;67990;59.826;30.108;2023-06-14T10:42:19;102042.13;;;27.46;30.77
78675;BME280;67990;59.826;30.108;2023-06-14T10:44:52;102042.16;;;27.39;30.52
78675;BME280;67990;59.826;30.108;2023-06-14T10:47:37;102038.88;;;27.05;30.64
78675;BME280;67990;59.826;30.108;2023-06-14T10:50:06;102026.81;;;27.14;30.93
78675;BME280;67990;59.826;30.108;2023-06-14T10:52:52;102039.09;;;27.10;31.68
78675;BME280;67990;59.826;30.108;2023-06-14T10:55:22;102031.63;;;27.12;31.60
78675;BME280;67990;59.826;30.108;2023-06-14T11:00:37;102030.38;;;27.14;30.91
78675;BME280;67990;59.826;30.108;2023-06-14T11:03:33;102027.22;;;27.37;31.59
78675;BME280;67990;59.826;30.108;2023-06-14T11:06:13;102023.72;;;27.30;31.11
78675;BME280;67990;59.826;30.108;2023-06-14T11:09:20;102020.19;;;27.23;31.15
78675;BME280;67990;59.826;30.108;2023-06-14T11:11:53;102018.56;;;27.02;30.59
78675;BME280;67990;59.826;30.108;2023-06-14T11:14:21;102028.94;;;26.86;29.86
78675;BME280;67990;59.826;30.108;2023-06-14T11:17:06;102017.53;;;26.84;30.55
78675;BME280;67990;59.826;30.108;2023-06-14T11:19:33;102021.28;;;26.70;30.46
78675;BME280;67990;59.826;30.108;2023-06-14T11:22:20;102020.03;;;26.66;30.96
78675;BME280;67990;59.826;30.108;2023-06-14T11:24:47;102015.88;;;26.89;30.67
78675;BME280;67990;59.826;30.108;2023-06-14T11:27:15;102007.56;;;26.97;30.61
78675;BME280;67990;59.826;30.108;2023-06-14T11:29:48;102010.47;;;26.44;30.10
78675;BME280;67990;59.826;30.108;2023-06-14T11:32:15;102012.97;;;26.84;31.18
78675;BME280;67990;59.826;30.108;2023-06-14T11:34:46;102007.13;;;26.94;30.98
78675;BME280;67990;59.826;30.108;2023-06-14T11:37:13;102006.78;;;26.64;30.61
78675;BME280;67990;59.826;30.108;2023-06-14T11:39:43;102010.47;;;26.70;30.77
78675;BME280;67990;59.826;30.108;2023-06-14T11:42:13;102004.09;;;26.64;30.72
78675;BME280;67990;59.826;30.108;2023-06-14T11:44:42;101996.59;;;26.47;30.88
78675;BME280;67990;59.826;30.108;2023-06-14T11:47:31;102000.28;;;26.20;30.91
78675;BME280;67990;59.826;30.108;2023-06-14T11:49:58;101999.69;;;26.24;31.12
78675;BME280;67990;59.826;30.108;2023-06-14T11:52:26;101994.06;;;26.19;30.87
78675;BME280;67990;59.826;30.108;2023-06-14T11:54:54;101994.47;;;26.23;31.09
78675;BME280;67990;59.826;30.108;2023-06-14T11:57:21;102000.47;;;26.05;30.97
78675;BME280;67990;59.826;30.108;2023-06-14T12:00:09;101996.53;;;26.14;31.22
78675;BME280;67990;59.826;30.108;2023-06-14T12:02:38;101999.88;;;26.29;31.39
78675;BME280;67990;59.826;30.108;2023-06-14T12:05:07;101997.19;;;26.23;31.16
78675;BME280;67990;59.826;30.108;2023-06-14T12:07:36;101996.78;;;26.19;31.50
78675;BME280;67990;59.826;30.108;2023-06-14T12:10:07;101994.47;;;26.16;31.23
78675;BME280;67990;59.826;30.108;2023-06-14T12:12:36;101995.47;;;25.96;31.63
78675;BME280;67990;59.826;30.108;2023-06-14T12:15:24;101989.94;;;26.10;31.64
78675;BME280;67990;59.826;30.108;2023-06-14T12:17:51;101989.47;;;26.00;31.39
78675;BME280;67990;59.826;30.108;2023-06-14T12:20:39;101991.97;;;26.02;31.81
78675;BME280;67990;59.826;30.108;2023-06-14T12:23:25;101984.34;;;26.25;31.70
78675;BME280;67990;59.826;30.108;2023-06-14T12:25:52;101988.06;;;26.30;31.74
78675;BME280;67990;59.826;30.108;2023-06-14T12:28:20;101987.25;;;26.23;31.43
78675;BME280;67990;59.826;30.108;2023-06-14T12:31:01;101981.00;;;26.23;31.59
78675;BME280;67990;59.826;30.108;2023-06-14T12:33:46;101984.94;;;26.14;31.20
78675;BME280;67990;59.826;30.108;2023-06-14T12:36:14;101979.97;;;26.11;31.71
78675;BME280;67990;59.826;30.108;2023-06-14T12:38:42;101986.81;;;26.13;31.00
78675;BME280;67990;59.826;30.108;2023-06-14T12:41:09;101986.41;;;26.16;31.61
78675;BME280;67990;59.826;30.108;2023-06-14T12:43:55;101984.94;;;26.14;31.15
78675;BME280;67990;59.826;30.108;2023-06-14T12:49:11;101982.59;;;25.84;31.05
78675;BME280;67990;59.826;30.108;2023-06-14T12:51:38;101981.78;;;25.97;30.85
78675;BME280;67990;59.826;30.108;2023-06-14T12:54:23;101973.88;;;25.89;30.41
78675;BME280;67990;59.826;30.108;2023-06-14T12:57:09;101974.97;;;25.95;30.52
78675;BME280;67990;59.826;30.108;2023-06-14T12:59:37;101984.09;;;26.07;30.29
78675;BME280;67990;59.826;30.108;2023-06-14T13:02:23;101976.47;;;26.10;30.47
78675;BME280;67990;59.826;30.108;2023-06-14T13:04:51;101970.78;;;25.92;30.50
78675;BME280;67990;59.826;30.108;2023-06-14T13:07:18;101968.75;;;25.94;29.95
78675;BME280;67990;59.826;30.108;2023-06-14T13:10:04;101967.94;;;26.07;30.34
78675;BME280;67990;59.826;30.108;2023-06-14T13:12:31;101965.63;;;25.97;30.02
78675;BME280;67990;59.826;30.108;2023-06-14T13:14:58;101970.81;;;25.99;30.08
78675;BME280;67990;59.826;30.108;2023-06-14T13:17:27;101962.34;;;26.08;29.87
78675;BME280;67990;59.826;30.108;2023-06-14T13:19:54;101952.41;;;26.09;29.69
78675;BME280;67990;59.826;30.108;2023-06-14T13:22:21;101958.75;;;25.81;29.80
78675;BME280;67990;59.826;30.108;2023-06-14T13:25:07;101961.75;;;26.13;29.99
78675;BME280;67990;59.826;30.108;2023-06-14T13:30:20;101958.22;;;26.19;29.20
78675;BME280;67990;59.826;30.108;2023-06-14T13:32:49;101956.16;;;26.21;29.53
78675;BME280;67990;59.826;30.108;2023-06-14T13:35:36;101949.72;;;26.22;28.39
78675;BME280;67990;59.826;30.108;2023-06-14T13:38:22;101939.97;;;26.21;29.69
78675;BME280;67990;59.826;30.108;2023-06-14T13:40:49;101950.97;;;26.26;29.15
78675;BME280;67990;59.826;30.108;2023-06-14T13:43:16;101954.47;;;26.33;28.67
78675;BME280;67990;59.826;30.108;2023-06-14T13:45:43;101952.00;;;26.31;28.77
78675;BME280;67990;59.826;30.108;2023-06-14T13:48:30;101946.63;;;26.25;29.00
78675;BME280;67990;59.826;30.108;2023-06-14T13:50:59;101943.69;;;26.20;28.33
78675;BME280;67990;59.826;30.108;2023-06-14T13:53:27;101941.44;;;26.23;28.66
78675;BME280;67990;59.826;30.108;2023-06-14T13:56:12;101942.69;;;26.21;28.62
78675;BME280;67990;59.826;30.108;2023-06-14T13:58:39;101937.06;;;26.09;29.18
78675;BME280;67990;59.826;30.108;2023-06-14T14:01:07;101938.28;;;25.94;29.66
78675;BME280;67990;59.826;30.108;2023-06-14T14:06:24;101937.66;;;25.92;31.38
78675;BME280;67990;59.826;30.108;2023-06-14T14:08:51;101938.84;;;25.76;31.08
78675;BME280;67990;59.826;30.108;2023-06-14T14:11:19;101937.56;;;25.65;31.60
78675;BME280;67990;59.826;30.108;2023-06-14T14:13:46;101934.69;;;25.67;32.04
78675;BME280;67990;59.826;30.108;2023-06-14T14:16:15;101941.88;;;25.53;32.06
78675;BME280;67990;59.826;30.108;2023-06-14T14:19:00;101934.84;;;25.52;32.65
78675;BME280;67990;59.826;30.108;2023-06-14T14:21:28;101940.59;;;25.36;32.75
78675;BME280;67990;59.826;30.108;2023-06-14T14:23:55;101933.72;;;25.27;33.04
78675;BME280;67990;59.826;30.108;2023-06-14T14:26:22;101937.97;;;25.15;32.52
78675;BME280;67990;59.826;30.108;2023-06-14T14:29:08;101931.53;;;25.10;32.82
78675;BME280;67990;59.826;30.108;2023-06-14T14:31:37;101933.81;;;25.06;32.73
78675;BME280;67990;59.826;30.108;2023-06-14T14:34:05;101929.91;;;25.15;33.31
78675;BME280;67990;59.826;30.108;2023-06-14T14:36:32;101928.44;;;25.06;32.94